createdAt,value
2024-02-14T00:01:49.789Z,101282.31
2024-02-14T00:04:51.526Z,101289.44
2024-02-14T00:07:53.397Z,101298.09
2024-02-14T00:10:55.190Z,101294.16
2024-02-14T00:13:57.764Z,101295.75
2024-02-14T00:17:00.646Z,101312.34
2024-02-14T00:20:04.288Z,101311.28
2024-02-14T00:23:06.239Z,101309.44
2024-02-14T00:26:07.984Z,101315.25
2024-02-14T00:29:09.751Z,101303.16
2024-02-14T00:32:12.866Z,101310.25
2024-02-14T00:35:15.049Z,101316.06
2024-02-14T00:38:17.087Z,101316.59
2024-02-14T00:41:18.874Z,101314.25
2024-02-14T00:44:20.790Z,101315.03
2024-02-14T00:47:22.539Z,101317.66
2024-02-14T00:50:24.364Z,101321.09
2024-02-14T00:53:26.631Z,101323.22
2024-02-14T00:56:28.447Z,101325.63
2024-02-14T00:59:30.379Z,101324.28
2024-02-14T01:02:32.237Z,101321.94
2024-02-14T01:05:34.288Z,101322.72
2024-02-14T01:08:37.495Z,101325.38
2024-02-14T01:11:39.748Z,101329.06
2024-02-14T01:14:41.636Z,101327.25
2024-02-14T01:17:44.168Z,101329.31
2024-02-14T01:20:46.057Z,101331.72
2024-02-14T01:23:47.907Z,101335.91
2024-02-14T01:26:51.931Z,101324.09
2024-02-14T01:29:56.239Z,101335.94
2024-02-14T01:32:58.085Z,101338.06
2024-02-14T01:36:00.232Z,101349.31
2024-02-14T01:39:02.127Z,101350.63
2024-02-14T01:42:08.203Z,101347.78
2024-02-14T01:45:10.430Z,101335.66
2024-02-14T01:48:12.420Z,101337.75
2024-02-14T01:51:14.975Z,101350.91
2024-02-14T01:54:18.623Z,101350.66
2024-02-14T01:57:21.072Z,101354.84
2024-02-14T02:00:23.006Z,101355.09
2024-02-14T02:03:26.026Z,101354.56
2024-02-14T02:06:28.736Z,101362.44
2024-02-14T02:09:32.684Z,101363.50
2024-02-14T02:12:34.709Z,101368.53
2024-02-14T02:15:36.463Z,101368.53
2024-02-14T02:18:38.721Z,101366.66
2024-02-14T02:21:40.697Z,101377.97
2024-02-14T02:24:42.454Z,101375.31
2024-02-14T02:27:44.214Z,101378.19
2024-02-14T02:30:47.565Z,101371.91
2024-02-14T02:33:50.691Z,101377.16
2024-02-14T02:36:52.551Z,101382.63
2024-02-14T02:39:54.758Z,101382.63
2024-02-14T02:42:56.566Z,101380.31
2024-02-14T02:45:59.204Z,101381.06
2024-02-14T02:49:01.169Z,101377.63
2024-02-14T02:52:04.095Z,101393.06
2024-02-14T02:55:06.616Z,101395.41
2024-02-14T02:58:08.628Z,101396.38
2024-02-14T03:01:10.951Z,101400.84
2024-02-14T03:04:14.683Z,101396.56
2024-02-14T03:07:16.557Z,101398.63
2024-02-14T03:10:22.344Z,101400.34
2024-02-14T03:13:24.098Z,101398.66
2024-02-14T03:16:26.006Z,101408.31
2024-02-14T03:19:31.283Z,101414.44
2024-02-14T03:22:33.092Z,101424.47
2024-02-14T03:25:38.033Z,101423.72
2024-02-14T03:28:40.307Z,101431.59
2024-02-14T03:31:44.879Z,101436.22
2024-02-14T03:34:46.703Z,101439.97
2024-02-14T03:37:49.984Z,101451.38
2024-02-14T03:40:51.899Z,101454.97
2024-02-14T03:43:55.697Z,101460.72
2024-02-14T03:46:57.669Z,101452.88
2024-02-14T03:50:00.903Z,101463.13
2024-02-14T03:53:04.606Z,101461.03
2024-02-14T03:56:08.400Z,101461.25
2024-02-14T03:59:10.209Z,101464.66
2024-02-14T04:02:12.034Z,101468.00
2024-02-14T04:05:13.887Z,101465.69
2024-02-14T04:08:19.098Z,101474.88
2024-02-14T04:11:20.940Z,101476.09
2024-02-14T04:14:22.765Z,101481.09
2024-02-14T04:17:25.732Z,101480.94
2024-02-14T04:20:27.804Z,101475.69
2024-02-14T04:23:29.696Z,101490.81
2024-02-14T04:26:31.567Z,101485.06
2024-02-14T04:29:35.139Z,101488.72
2024-02-14T04:32:37.450Z,101491.00
2024-02-14T04:35:39.351Z,101494.41
2024-02-14T04:38:42.089Z,101499.84
2024-02-14T04:41:53.967Z,101503.81
2024-02-14T04:44:59.673Z,101509.47
2024-02-14T04:48:01.544Z,101509.84
2024-02-14T04:51:05.554Z,101510.94
2024-02-14T04:54:08.772Z,101511.44
2024-02-14T04:57:10.686Z,101512.22
2024-02-14T05:00:13.219Z,101512.50
2024-02-14T05:03:15.150Z,101509.91
2024-02-14T05:06:17.298Z,101526.50
2024-02-14T05:09:19.444Z,101524.78
2024-02-14T05:12:21.596Z,101524.47
2024-02-14T05:15:23.543Z,101525.69
2024-02-14T05:18:25.378Z,101522.66
2024-02-14T05:21:28.380Z,101522.59
2024-02-14T05:24:30.488Z,101524.75
2024-02-14T05:27:32.437Z,101534.28
2024-02-14T05:30:34.325Z,101538.38
2024-02-14T05:33:37.048Z,101538.94
2024-02-14T05:36:39.391Z,101540.88
2024-02-14T05:39:41.155Z,101546.59
2024-02-14T05:42:45.726Z,101534.81
2024-02-14T05:45:48.645Z,101543.34
2024-02-14T05:48:50.515Z,101549.69
2024-02-14T05:51:54.397Z,101553.28
2024-02-14T05:54:58.436Z,101558.31
2024-02-14T05:58:00.615Z,101564.41
2024-02-14T06:01:02.633Z,101568.41
2024-02-14T06:04:04.784Z,101573.50
2024-02-14T06:07:08.072Z,101572.56
2024-02-14T06:10:10.740Z,101570.56
2024-02-14T06:13:12.650Z,101574.63
2024-02-14T06:16:15.179Z,101584.50
2024-02-14T06:19:17.193Z,101586.75
2024-02-14T06:22:19.024Z,101579.13
2024-02-14T06:25:20.847Z,101601.38
2024-02-14T06:28:22.721Z,101597.75
2024-02-14T06:31:25.017Z,101606.03
2024-02-14T06:34:29.005Z,101603.84
2024-02-14T06:37:34.947Z,101610.31
2024-02-14T06:40:41.624Z,101610.69
2024-02-14T06:43:43.469Z,101611.03
2024-02-14T06:46:45.697Z,101619.41
2024-02-14T06:49:47.740Z,101617.03
2024-02-14T06:52:50.033Z,101627.13
2024-02-14T06:55:52.681Z,101629.56
2024-02-14T06:59:02.505Z,101629.28
2024-02-14T07:02:13.368Z,101628.94
2024-02-14T07:05:17.460Z,101635.66
2024-02-14T07:08:23.341Z,101633.22
2024-02-14T07:11:26.651Z,101637.91
2024-02-14T07:14:30.348Z,101640.88
2024-02-14T07:17:34.729Z,101634.84
2024-02-14T07:20:38.368Z,101642.34
2024-02-14T07:23:43.128Z,101637.97
2024-02-14T07:26:48.272Z,101646.00
2024-02-14T07:29:52.644Z,101645.81
2024-02-14T07:32:55.367Z,101644.34
2024-02-14T07:35:57.995Z,101648.97
2024-02-14T07:39:00.401Z,101653.56
2024-02-14T07:42:04.097Z,101654.38
2024-02-14T07:45:06.704Z,101655.25
2024-02-14T07:48:09.727Z,101661.88
2024-02-14T07:51:12.021Z,101652.56
2024-02-14T07:54:25.518Z,101661.81
2024-02-14T07:57:28.799Z,101654.47
2024-02-14T08:00:30.653Z,101656.31
2024-02-14T08:03:36.014Z,101650.75
2024-02-14T08:06:42.114Z,101660.44
2024-02-14T08:09:45.296Z,101655.22
2024-02-14T08:12:48.641Z,101655.00
2024-02-14T08:15:51.034Z,101653.34
2024-02-14T08:19:00.045Z,101666.00
2024-02-14T08:22:02.566Z,101667.56
2024-02-14T08:25:04.679Z,101662.25
2024-02-14T08:28:08.818Z,101660.38
2024-02-14T08:31:15.523Z,101669.59
2024-02-14T08:34:17.708Z,101658.88
2024-02-14T08:37:19.679Z,101668.25
2024-02-14T08:40:21.545Z,101661.63
2024-02-14T08:43:26.190Z,101655.56
2024-02-14T08:46:30.210Z,101670.63
2024-02-14T08:49:32.050Z,101669.03
2024-02-14T08:52:33.927Z,101666.34
2024-02-14T08:55:37.827Z,101668.72
2024-02-14T08:58:39.824Z,101674.38
2024-02-14T09:01:41.911Z,101673.13
2024-02-14T09:04:45.540Z,101666.03
2024-02-14T09:07:47.626Z,101659.38
2024-02-14T09:10:49.766Z,101663.34
2024-02-14T09:13:55.390Z,101666.94
2024-02-14T09:16:57.820Z,101673.09
2024-02-14T09:19:59.621Z,101669.34
2024-02-14T09:23:01.924Z,101674.09
2024-02-14T09:26:04.091Z,101677.97
2024-02-14T09:29:06.433Z,101673.34
2024-02-14T09:32:09.115Z,101676.59
2024-02-14T09:35:11.397Z,101675.63
2024-02-14T09:38:15.912Z,101680.22
2024-02-14T09:41:37.374Z,101671.50
2024-02-14T09:44:40.251Z,101678.13
2024-02-14T09:47:45.925Z,101680.44
2024-02-14T09:50:49.993Z,101674.78
2024-02-14T09:53:58.031Z,101674.53
2024-02-14T09:57:00.598Z,101672.47
2024-02-14T10:00:04.069Z,101676.34
2024-02-14T10:03:07.866Z,101669.41
2024-02-14T10:06:10.646Z,101670.09
2024-02-14T10:09:20.369Z,101668.53
2024-02-14T10:12:22.242Z,101664.41
2024-02-14T10:15:24.115Z,101651.75
2024-02-14T10:18:33.175Z,101653.28
2024-02-14T10:21:35.069Z,101643.88
2024-02-14T10:24:36.946Z,101649.91
2024-02-14T10:27:39.966Z,101645.91
2024-02-14T10:30:43.324Z,101638.63
2024-02-14T10:33:45.723Z,101636.72
2024-02-14T10:36:48.843Z,101639.91
2024-02-14T10:39:54.542Z,101638.25
2024-02-14T10:42:59.652Z,101630.84
2024-02-14T10:46:08.938Z,101631.50
2024-02-14T10:49:13.044Z,101627.91
2024-02-14T10:52:19.081Z,101626.59
2024-02-14T10:55:23.728Z,101622.78
2024-02-14T10:58:29.310Z,101618.84
2024-02-14T11:01:33.476Z,101612.38
2024-02-14T11:04:35.831Z,101610.00
2024-02-14T11:07:44.749Z,101607.78
2024-02-14T11:10:55.150Z,101607.13
2024-02-14T11:13:57.316Z,101612.50
2024-02-14T11:17:00.781Z,101606.97
2024-02-14T11:20:22.773Z,101604.22
2024-02-14T11:23:25.915Z,101611.13
2024-02-14T11:26:29.321Z,101601.50
2024-02-14T11:29:34.109Z,101611.91
2024-02-14T11:32:36.002Z,101606.00
2024-02-14T11:35:43.511Z,101606.97
2024-02-14T11:38:45.475Z,101599.38
2024-02-14T11:41:47.310Z,101593.84
2024-02-14T11:44:50.115Z,101589.91
2024-02-14T11:47:52.111Z,101592.34
2024-02-14T11:51:02.406Z,101586.78
2024-02-14T11:54:08.754Z,101589.38
2024-02-14T11:57:11.014Z,101575.66
2024-02-14T12:00:13.497Z,101575.38
2024-02-14T12:03:22.061Z,101579.66
2024-02-14T12:06:24.348Z,101575.84
2024-02-14T12:09:28.296Z,101574.66
2024-02-14T12:12:31.339Z,101580.88
2024-02-14T12:15:38.703Z,101581.94
2024-02-14T12:18:41.311Z,101576.88
2024-02-14T12:21:46.785Z,101583.72
2024-02-14T12:24:49.301Z,101581.59
2024-02-14T12:27:52.777Z,101577.94
2024-02-14T12:30:57.786Z,101578.44
2024-02-14T12:34:02.913Z,101573.13
2024-02-14T12:37:06.687Z,101578.88
2024-02-14T12:40:09.482Z,101582.09
2024-02-14T12:43:12.969Z,101571.78
2024-02-14T12:46:14.965Z,101578.34
2024-02-14T12:49:19.256Z,101578.13
2024-02-14T12:52:21.424Z,101564.84
2024-02-14T12:56:08.861Z,101569.47
2024-02-14T12:59:22.052Z,101563.84
2024-02-14T13:02:23.845Z,101560.06
2024-02-14T13:05:26.930Z,101557.09
2024-02-14T13:08:29.170Z,101560.28
2024-02-14T13:11:33.011Z,101569.97
2024-02-14T13:14:34.915Z,101572.59
2024-02-14T13:17:36.907Z,101569.19
2024-02-14T13:20:40.178Z,101573.38
2024-02-14T13:23:42.124Z,101567.84
2024-02-14T13:26:44.010Z,101573.25
2024-02-14T13:29:45.852Z,101562.81
2024-02-14T13:32:48.175Z,101575.06
2024-02-14T13:35:50.174Z,101571.44
2024-02-14T13:38:52.078Z,101568.81
2024-02-14T13:41:54.099Z,101576.34
2024-02-14T13:44:56.108Z,101570.47
2024-02-14T13:48:09.194Z,101572.44
2024-02-14T13:51:11.354Z,101568.97
2024-02-14T13:54:13.316Z,101566.50
2024-02-14T13:57:15.679Z,101571.00
2024-02-14T14:00:18.410Z,101569.59
2024-02-14T14:03:20.297Z,101563.44
2024-02-14T14:06:25.327Z,101563.13
2024-02-14T14:09:27.808Z,101556.41
2024-02-14T14:12:29.641Z,101557.38
2024-02-14T14:15:33.935Z,101555.34
2024-02-14T14:18:36.758Z,101555.63
2024-02-14T14:21:39.545Z,101556.59
2024-02-14T14:24:41.413Z,101557.69
2024-02-14T14:27:44.194Z,101554.44
2024-02-14T14:30:46.326Z,101561.16
2024-02-14T14:33:48.303Z,101555.78
2024-02-14T14:36:50.231Z,101563.41
2024-02-14T14:39:52.015Z,101554.03
2024-02-14T14:42:54.054Z,101571.84
2024-02-14T14:45:58.252Z,101572.63
2024-02-14T14:49:00.287Z,101571.16
2024-02-14T14:52:05.519Z,101565.09
2024-02-14T14:55:07.700Z,101565.28
2024-02-14T14:58:14.752Z,101573.38
2024-02-14T15:01:16.590Z,101573.50
2024-02-14T15:04:21.087Z,101564.19
2024-02-14T15:07:23.203Z,101562.50
2024-02-14T15:10:25.553Z,101558.78
2024-02-14T15:13:28.678Z,101559.06
2024-02-14T15:16:31.693Z,101560.50
2024-02-14T15:19:33.681Z,101566.56
2024-02-14T15:22:35.568Z,101565.84
2024-02-14T15:25:37.690Z,101571.34
2024-02-14T15:28:42.839Z,101577.50
2024-02-14T15:32:03.487Z,101573.56
2024-02-14T15:35:06.072Z,101581.22
2024-02-14T15:38:08.001Z,101583.84
2024-02-14T15:41:10.751Z,101582.63
2024-02-14T15:44:13.082Z,101581.56
2024-02-14T15:47:15.157Z,101587.88
2024-02-14T15:50:17.435Z,101581.44
2024-02-14T15:53:20.191Z,101583.34
2024-02-14T15:56:22.285Z,101583.22
2024-02-14T15:59:24.070Z,101585.88
2024-02-14T16:02:26.137Z,101584.34
2024-02-14T16:05:29.071Z,101585.19
2024-02-14T16:08:30.995Z,101589.19
2024-02-14T16:11:33.142Z,101587.88
2024-02-14T16:14:34.997Z,101595.22
2024-02-14T16:17:37.078Z,101595.31
2024-02-14T16:20:39.062Z,101595.88
2024-02-14T16:23:41.932Z,101598.84
2024-02-14T16:26:45.011Z,101597.50
2024-02-14T16:29:46.922Z,101602.53
2024-02-14T16:32:49.079Z,101597.84
2024-02-14T16:35:51.188Z,101601.78
2024-02-14T16:38:52.985Z,101599.69
2024-02-14T16:41:54.902Z,101607.34
2024-02-14T16:44:56.705Z,101610.50
2024-02-14T16:47:58.827Z,101610.50
2024-02-14T16:51:00.650Z,101616.03
2024-02-14T16:54:02.545Z,101617.31
2024-02-14T16:57:10.847Z,101618.91
2024-02-14T17:00:14.492Z,101614.44
2024-02-14T17:03:17.475Z,101618.59
2024-02-14T17:06:20.623Z,101628.63
2024-02-14T17:09:22.940Z,101630.59
2024-02-14T17:12:24.929Z,101630.09
2024-02-14T17:15:27.096Z,101632.72
2024-02-14T17:18:30.548Z,101629.78
2024-02-14T17:21:32.687Z,101635.47
2024-02-14T17:24:34.725Z,101628.09
2024-02-14T17:27:36.723Z,101625.44
2024-02-14T17:30:40.244Z,101640.94
2024-02-14T17:33:43.719Z,101634.81
2024-02-14T17:36:46.127Z,101633.75
2024-02-14T17:39:48.218Z,101633.97
2024-02-14T17:42:51.323Z,101636.00
2024-02-14T17:45:53.083Z,101634.47
2024-02-14T17:48:56.282Z,101635.50
2024-02-14T17:51:59.632Z,101634.09
2024-02-14T17:55:04.956Z,101630.72
2024-02-14T17:58:07.451Z,101628.09
2024-02-14T18:01:10.546Z,101630.09
2024-02-14T18:04:12.409Z,101639.41
2024-02-14T18:07:15.088Z,101634.47
2024-02-14T18:10:17.492Z,101639.16
2024-02-14T18:13:19.271Z,101638.97
2024-02-14T18:16:21.428Z,101640.81
2024-02-14T18:19:23.332Z,101642.50
2024-02-14T18:22:25.132Z,101645.22
2024-02-14T18:25:26.876Z,101651.53
2024-02-14T18:28:31.659Z,101648.09
2024-02-14T18:31:33.511Z,101649.84
2024-02-14T18:34:35.389Z,101651.59
2024-02-14T18:37:37.417Z,101659.47
2024-02-14T18:40:43.054Z,101658.50
2024-02-14T18:43:44.900Z,101656.56
2024-02-14T18:46:47.847Z,101664.16
2024-02-14T18:49:50.077Z,101663.13
2024-02-14T18:52:52.318Z,101658.56
2024-02-14T18:55:56.422Z,101656.78
2024-02-14T18:58:58.423Z,101657.78
2024-02-14T19:02:00.503Z,101657.25
2024-02-14T19:05:02.639Z,101666.59
2024-02-14T19:08:05.324Z,101666.44
2024-02-14T19:11:07.793Z,101668.78
2024-02-14T19:14:09.790Z,101668.94
2024-02-14T19:17:11.917Z,101671.63
2024-02-14T19:20:13.804Z,101668.59
2024-02-14T19:23:15.579Z,101668.53
2024-02-14T19:26:17.574Z,101672.50
2024-02-14T19:29:20.293Z,101667.94
2024-02-14T19:32:22.186Z,101672.38
2024-02-14T19:35:24.233Z,101664.09
2024-02-14T19:38:26.423Z,101663.53
2024-02-14T19:41:28.460Z,101664.31
2024-02-14T19:44:30.257Z,101657.88
2024-02-14T19:47:33.991Z,101664.53
2024-02-14T19:50:35.900Z,101667.09
2024-02-14T19:53:37.853Z,101668.78
2024-02-14T19:56:39.727Z,101666.63
2024-02-14T19:59:41.669Z,101663.38
2024-02-14T20:02:43.661Z,101665.34
2024-02-14T20:05:47.193Z,101668.44
2024-02-14T20:08:49.533Z,101668.22
2024-02-14T20:11:51.486Z,101665.25
2024-02-14T20:14:53.660Z,101661.13
2024-02-14T20:17:55.641Z,101664.28
2024-02-14T20:20:58.674Z,101667.03
2024-02-14T20:24:01.086Z,101668.47
2024-02-14T20:27:04.664Z,101665.94
2024-02-14T20:30:11.793Z,101668.69
2024-02-14T20:33:13.938Z,101667.13
2024-02-14T20:36:15.882Z,101678.53
2024-02-14T20:39:17.959Z,101682.06
2024-02-14T20:42:21.546Z,101686.78
2024-02-14T20:45:24.864Z,101681.94
2024-02-14T20:48:26.844Z,101689.06
2024-02-14T20:51:29.354Z,101676.25
2024-02-14T20:54:31.137Z,101686.09
2024-02-14T20:57:34.233Z,101683.53
2024-02-14T21:00:36.470Z,101680.81
2024-02-14T21:03:38.583Z,101685.66
2024-02-14T21:06:40.783Z,101686.78
2024-02-14T21:09:45.908Z,101686.53
2024-02-14T21:12:47.671Z,101688.19
2024-02-14T21:15:49.716Z,101686.47
2024-02-14T21:18:51.822Z,101695.31
2024-02-14T21:21:53.654Z,101683.59
2024-02-14T21:24:55.440Z,101683.25
2024-02-14T21:27:57.482Z,101693.44
2024-02-14T21:31:00.136Z,101682.53
2024-02-14T21:34:03.648Z,101683.47
2024-02-14T21:37:05.677Z,101681.22
2024-02-14T21:40:08.938Z,101683.75
2024-02-14T21:43:10.743Z,101691.59
2024-02-14T21:46:12.490Z,101679.22
2024-02-14T21:49:21.571Z,101679.19
2024-02-14T21:52:23.781Z,101677.91
2024-02-14T21:55:25.580Z,101682.66
2024-02-14T21:58:27.359Z,101689.16
2024-02-14T22:01:29.295Z,101680.78
2024-02-14T22:04:31.650Z,101677.16
2024-02-14T22:07:33.502Z,101678.19
2024-02-14T22:10:35.813Z,101684.09
2024-02-14T22:13:39.483Z,101682.28
2024-02-14T22:16:41.433Z,101681.94
2024-02-14T22:19:43.931Z,101684.00
2024-02-14T22:22:45.762Z,101680.13
2024-02-14T22:25:47.969Z,101682.63
2024-02-14T22:28:50.090Z,101686.00
2024-02-14T22:31:53.547Z,101683.28
2024-02-14T22:34:55.375Z,101677.16
2024-02-14T22:37:57.380Z,101681.13
2024-02-14T22:40:59.137Z,101680.34
2024-02-14T22:44:00.958Z,101681.50
2024-02-14T22:47:02.718Z,101675.91
2024-02-14T22:50:05.395Z,101679.09
2024-02-14T22:53:07.240Z,101672.19
2024-02-14T22:56:11.184Z,101665.81
2024-02-14T22:59:13.062Z,101663.53
2024-02-14T23:02:15.130Z,101664.34
2024-02-14T23:05:21.255Z,101667.63
2024-02-14T23:08:23.171Z,101666.19
2024-02-14T23:11:27.374Z,101658.22
2024-02-14T23:14:29.337Z,101660.38
2024-02-14T23:17:32.277Z,101666.63
2024-02-14T23:20:34.342Z,101666.06
2024-02-14T23:23:36.418Z,101662.66
2024-02-14T23:26:38.592Z,101664.81
2024-02-14T23:29:40.434Z,101670.72
2024-02-14T23:32:42.851Z,101677.06
2024-02-14T23:35:44.915Z,101669.22
2024-02-14T23:38:46.728Z,101663.91
2024-02-14T23:41:48.548Z,101662.16
2024-02-14T23:44:51.331Z,101671.28
2024-02-14T23:47:55.074Z,101672.28
2024-02-14T23:50:59.345Z,101671.28
2024-02-14T23:54:01.536Z,101676.59
2024-02-14T23:57:04.775Z,101679.75
